createdAt,value
2023-02-03T00:02:25.226Z,100590.00
2023-02-03T00:04:52.783Z,100598.00
2023-02-03T00:07:20.552Z,100588.00
2023-02-03T00:09:47.955Z,100588.00
2023-02-03T00:12:15.474Z,100573.00
2023-02-03T00:14:42.853Z,100569.00
2023-02-03T00:17:10.179Z,100574.00
2023-02-03T00:19:37.495Z,100562.00
2023-02-03T00:22:04.900Z,100559.00
2023-02-03T00:24:32.374Z,100555.00
2023-02-03T00:26:59.857Z,100550.00
2023-02-03T00:29:28.135Z,100562.00
2023-02-03T00:31:55.777Z,100543.00
2023-02-03T00:34:23.462Z,100548.00
2023-02-03T00:36:51.009Z,100538.00
2023-02-03T00:39:18.331Z,100539.00
2023-02-03T00:41:47.245Z,100550.00
2023-02-03T00:44:15.143Z,100548.00
2023-02-03T00:46:45.568Z,100541.00
2023-02-03T00:49:12.927Z,100532.00
2023-02-03T00:51:40.495Z,100527.00
2023-02-03T00:54:08.165Z,100524.00
2023-02-03T00:56:35.601Z,100519.00
2023-02-03T00:59:03.179Z,100540.00
2023-02-03T01:01:32.074Z,100532.00
2023-02-03T01:04:00.174Z,100532.00
2023-02-03T01:06:28.737Z,100526.00
2023-02-03T01:08:56.220Z,100523.00
2023-02-03T01:11:29.974Z,100524.00
2023-02-03T01:14:01.816Z,100521.00
2023-02-03T01:16:46.913Z,100516.00
2023-02-03T01:19:14.986Z,100511.00
2023-02-03T01:21:42.588Z,100514.00
2023-02-03T01:24:10.086Z,100509.00
2023-02-03T01:26:39.594Z,100500.00
2023-02-03T01:29:08.449Z,100507.00
2023-02-03T01:31:39.995Z,100499.00
2023-02-03T01:34:13.359Z,100494.00
2023-02-03T01:36:41.207Z,100499.00
2023-02-03T01:39:08.603Z,100505.00
2023-02-03T01:41:38.593Z,100510.00
2023-02-03T01:44:43.064Z,100503.00
2023-02-03T01:47:19.518Z,100509.00
2023-02-03T01:50:19.949Z,100516.00
2023-02-03T01:52:58.668Z,100506.00
2023-02-03T01:55:32.093Z,100496.00
2023-02-03T01:58:16.622Z,100497.00
2023-02-03T02:00:44.605Z,100488.00
2023-02-03T02:03:13.613Z,100489.00
2023-02-03T02:05:50.468Z,100488.00
2023-02-03T02:08:22.356Z,100487.00
2023-02-03T02:10:50.594Z,100475.00
2023-02-03T02:13:20.270Z,100469.00
2023-02-03T02:16:03.339Z,100465.00
2023-02-03T02:19:06.279Z,100448.00
2023-02-03T02:22:01.840Z,100447.00
2023-02-03T02:25:29.914Z,100444.00
2023-02-03T02:28:18.805Z,100438.00
2023-02-03T02:31:02.061Z,100444.00
2023-02-03T02:33:43.264Z,100435.00
2023-02-03T02:37:08.001Z,100420.00
2023-02-03T02:40:19.119Z,100411.00
2023-02-03T02:43:21.841Z,100417.00
2023-02-03T02:45:54.226Z,100409.00
2023-02-03T02:48:46.752Z,100390.00
2023-02-03T02:51:15.938Z,100382.00
2023-02-03T02:53:52.930Z,100381.00
2023-02-03T02:56:22.538Z,100388.00
2023-02-03T02:58:51.371Z,100366.00
2023-02-03T03:01:19.511Z,100375.00
2023-02-03T03:03:47.015Z,100366.00
2023-02-03T03:06:26.623Z,100363.00
2023-02-03T03:09:05.006Z,100357.00
2023-02-03T03:11:43.270Z,100342.00
2023-02-03T03:14:15.876Z,100330.00
2023-02-03T03:16:51.511Z,100323.00
2023-02-03T03:19:25.807Z,100320.00
2023-02-03T03:22:01.809Z,100323.00
2023-02-03T03:24:35.407Z,100316.00
2023-02-03T03:27:13.639Z,100321.00
2023-02-03T03:30:11.355Z,100353.00
2023-02-03T03:32:39.489Z,100360.00
2023-02-03T03:35:08.138Z,100376.00
2023-02-03T03:37:57.367Z,100385.00
2023-02-03T03:40:38.760Z,100388.00
2023-02-03T03:43:20.587Z,100376.00
2023-02-03T03:45:58.389Z,100383.00
2023-02-03T03:48:37.599Z,100362.00
2023-02-03T03:51:49.647Z,100366.00
2023-02-03T03:54:22.268Z,100372.00
2023-02-03T03:57:15.667Z,100346.00
2023-02-03T03:59:48.751Z,100347.00
2023-02-03T04:02:19.127Z,100350.00
2023-02-03T04:04:48.406Z,100319.00
2023-02-03T04:07:16.362Z,100311.00
2023-02-03T04:09:43.948Z,100299.00
2023-02-03T04:12:23.275Z,100303.00
2023-02-03T04:14:50.854Z,100302.00
2023-02-03T04:17:20.400Z,100311.00
2023-02-03T04:19:49.084Z,100315.00
2023-02-03T04:22:16.509Z,100330.00
2023-02-03T04:24:44.127Z,100309.00
2023-02-03T04:27:11.502Z,100300.00
2023-02-03T04:29:38.921Z,100294.00
2023-02-03T04:32:06.372Z,100287.00
2023-02-03T04:34:34.061Z,100286.00
2023-02-03T04:37:01.642Z,100276.00
2023-02-03T04:39:29.341Z,100278.00
2023-02-03T04:41:57.297Z,100271.00
2023-02-03T04:44:24.802Z,100271.00
2023-02-03T04:46:52.212Z,100270.00
2023-02-03T04:49:31.716Z,100261.00
2023-02-03T04:51:59.345Z,100257.00
2023-02-03T04:54:26.942Z,100269.00
2023-02-03T04:56:54.343Z,100263.00
2023-02-03T04:59:21.823Z,100266.00
2023-02-03T05:01:49.273Z,100273.00
2023-02-03T05:04:16.876Z,100281.00
2023-02-03T05:06:44.458Z,100276.00
2023-02-03T05:09:11.870Z,100267.00
2023-02-03T05:11:39.636Z,100253.00
2023-02-03T05:14:08.050Z,100263.00
2023-02-03T05:16:35.624Z,100259.00
2023-02-03T05:19:03.237Z,100249.00
2023-02-03T05:21:30.697Z,100250.00
2023-02-03T05:23:58.360Z,100257.00
2023-02-03T05:26:28.394Z,100244.00
2023-02-03T05:28:57.673Z,100241.00
2023-02-03T05:31:25.708Z,100230.00
2023-02-03T05:33:53.308Z,100234.00
2023-02-03T05:36:20.938Z,100218.00
2023-02-03T05:38:50.698Z,100225.00
2023-02-03T05:41:36.555Z,100227.00
2023-02-03T05:44:04.342Z,100220.00
2023-02-03T05:46:31.847Z,100216.00
2023-02-03T05:49:02.123Z,100208.00
2023-02-03T05:51:29.633Z,100208.00
2023-02-03T05:53:58.711Z,100204.00
2023-02-03T05:56:26.526Z,100202.00
2023-02-03T05:58:53.954Z,100197.00
2023-02-03T06:01:21.447Z,100200.00
2023-02-03T06:03:49.364Z,100202.00
2023-02-03T06:06:17.966Z,100201.00
2023-02-03T06:08:45.557Z,100189.00
2023-02-03T06:11:12.945Z,100203.00
2023-02-03T06:13:40.506Z,100212.00
2023-02-03T06:16:08.195Z,100215.00
2023-02-03T06:18:37.497Z,100214.00
2023-02-03T06:21:05.375Z,100201.00
2023-02-03T06:23:32.854Z,100204.00
2023-02-03T06:26:03.153Z,100206.00
2023-02-03T06:28:30.662Z,100212.00
2023-02-03T06:30:58.227Z,100207.00
2023-02-03T06:33:26.000Z,100205.00
2023-02-03T06:35:54.950Z,100205.00
2023-02-03T06:38:22.384Z,100210.00
2023-02-03T06:40:49.997Z,100202.00
2023-02-03T06:43:17.741Z,100207.00
2023-02-03T06:45:48.134Z,100211.00
2023-02-03T06:48:16.191Z,100200.00
2023-02-03T06:50:46.436Z,100199.00
2023-02-03T06:53:14.807Z,100194.00
2023-02-03T06:55:44.250Z,100175.00
2023-02-03T06:58:11.640Z,100181.00
2023-02-03T07:00:39.000Z,100181.00
2023-02-03T07:03:06.452Z,100180.00
2023-02-03T07:05:36.967Z,100170.00
2023-02-03T07:08:04.594Z,100181.00
2023-02-03T07:10:32.244Z,100164.00
2023-02-03T07:13:07.471Z,100167.00
2023-02-03T07:15:35.683Z,100157.00
2023-02-03T07:18:03.119Z,100157.00
2023-02-03T07:20:32.581Z,100145.00
2023-02-03T07:23:02.669Z,100143.00
2023-02-03T07:25:31.160Z,100144.00
2023-02-03T07:27:58.547Z,100143.00
2023-02-03T07:30:29.333Z,100148.00
2023-02-03T07:32:57.214Z,100140.00
2023-02-03T07:35:25.469Z,100147.00
2023-02-03T07:37:53.633Z,100136.00
2023-02-03T07:40:21.330Z,100142.00
2023-02-03T07:42:50.263Z,100141.00
2023-02-03T07:45:19.022Z,100145.00
2023-02-03T07:47:46.474Z,100153.00
2023-02-03T07:50:13.830Z,100149.00
2023-02-03T07:52:41.339Z,100136.00
2023-02-03T07:55:09.690Z,100126.00
2023-02-03T07:57:37.446Z,100128.00
2023-02-03T08:00:07.526Z,100120.00
2023-02-03T08:02:44.215Z,100109.00
2023-02-03T08:05:13.004Z,100104.00
2023-02-03T08:07:41.265Z,100106.00
2023-02-03T08:10:11.348Z,100105.00
2023-02-03T08:12:39.147Z,100089.00
2023-02-03T08:15:07.650Z,100085.00
2023-02-03T08:17:35.373Z,100096.00
2023-02-03T08:20:02.919Z,100085.00
2023-02-03T08:22:31.006Z,100089.00
2023-02-03T08:24:58.457Z,100083.00
2023-02-03T08:27:26.459Z,100093.00
2023-02-03T08:29:56.529Z,100089.00
2023-02-03T08:32:27.598Z,100090.00
2023-02-03T08:34:55.345Z,100073.00
2023-02-03T08:37:28.472Z,100073.00
2023-02-03T08:40:00.201Z,100064.00
2023-02-03T08:42:28.412Z,100083.00
2023-02-03T08:44:56.393Z,100082.00
2023-02-03T08:47:24.458Z,100081.00
2023-02-03T08:49:52.103Z,100094.00
2023-02-03T08:52:19.955Z,100090.00
2023-02-03T08:54:48.308Z,100065.00
2023-02-03T08:57:16.267Z,100087.00
2023-02-03T08:59:45.959Z,100083.00
2023-02-03T09:02:19.454Z,100089.00
2023-02-03T09:04:49.322Z,100082.00
2023-02-03T09:07:17.090Z,100083.00
2023-02-03T09:09:45.933Z,100077.00
2023-02-03T09:12:13.586Z,100089.00
2023-02-03T09:14:41.310Z,100088.00
2023-02-03T09:17:10.139Z,100087.00
2023-02-03T09:19:37.937Z,100078.00
2023-02-03T09:22:05.944Z,100079.00
2023-02-03T09:24:33.955Z,100065.00
2023-02-03T09:27:01.611Z,100064.00
2023-02-03T09:29:29.270Z,100069.00
2023-02-03T09:31:56.905Z,100076.00
2023-02-03T09:34:24.590Z,100057.00
2023-02-03T09:36:52.244Z,100049.00
2023-02-03T09:39:19.900Z,100056.00
2023-02-03T09:42:34.113Z,100048.00
2023-02-03T09:45:20.723Z,100062.00
2023-02-03T09:47:54.277Z,100065.00
2023-02-03T09:50:26.010Z,100069.00
2023-02-03T09:52:54.746Z,100056.00
2023-02-03T09:55:35.966Z,100056.00
2023-02-03T09:58:18.598Z,100044.00
2023-02-03T10:01:02.884Z,100048.00
2023-02-03T10:04:02.414Z,100039.00
2023-02-03T10:06:36.653Z,100037.00
2023-02-03T10:09:28.707Z,100032.00
2023-02-03T10:12:20.159Z,100048.00
2023-02-03T10:15:16.083Z,100050.00
2023-02-03T10:18:10.579Z,100061.00
2023-02-03T10:21:30.720Z,100077.00
2023-02-03T10:23:59.581Z,100061.00
2023-02-03T10:26:29.640Z,100069.00
2023-02-03T10:29:07.239Z,100058.00
2023-02-03T10:31:37.662Z,100066.00
2023-02-03T10:34:15.303Z,100065.00
2023-02-03T10:36:48.426Z,100062.00
2023-02-03T10:39:50.011Z,100065.00
2023-02-03T10:42:22.375Z,100076.00
2023-02-03T10:45:00.576Z,100076.00
2023-02-03T10:47:38.394Z,100096.00
2023-02-03T10:50:22.603Z,100082.00
2023-02-03T10:52:50.363Z,100079.00
2023-02-03T10:55:38.155Z,100098.00
2023-02-03T10:58:23.352Z,100093.00
2023-02-03T11:00:59.296Z,100088.00
2023-02-03T11:03:29.765Z,100099.00
2023-02-03T11:06:17.922Z,100105.00
2023-02-03T11:08:48.780Z,100119.00
2023-02-03T11:11:29.258Z,100146.00
2023-02-03T11:14:17.397Z,100141.00
2023-02-03T11:16:47.446Z,100147.00
2023-02-03T11:19:21.230Z,100128.00
2023-02-03T11:21:56.692Z,100128.00
2023-02-03T11:24:33.769Z,100124.00
2023-02-03T11:27:18.777Z,100120.00
2023-02-03T11:30:17.283Z,100131.00
2023-02-03T11:32:47.225Z,100123.00
2023-02-03T11:35:23.918Z,100130.00
2023-02-03T11:37:58.691Z,100131.00
2023-02-03T11:40:30.471Z,100135.00
2023-02-03T11:42:58.019Z,100138.00
2023-02-03T11:45:42.259Z,100137.00
2023-02-03T11:48:39.084Z,100136.00
2023-02-03T11:51:49.190Z,100141.00
2023-02-03T11:54:31.041Z,100144.00
2023-02-03T11:57:28.711Z,100161.00
2023-02-03T12:00:18.063Z,100144.00
2023-02-03T12:03:12.296Z,100147.00
2023-02-03T12:06:13.121Z,100131.00
2023-02-03T12:08:55.991Z,100123.00
2023-02-03T12:12:00.310Z,100134.00
2023-02-03T12:15:18.814Z,100147.00
2023-02-03T12:18:26.684Z,100146.00
2023-02-03T12:21:44.438Z,100152.00
2023-02-03T12:24:43.570Z,100136.00
2023-02-03T12:27:33.171Z,100146.00
2023-02-03T12:30:14.898Z,100154.00
2023-02-03T12:32:47.950Z,100150.00
2023-02-03T12:35:39.582Z,100162.00
2023-02-03T12:38:35.032Z,100166.00
2023-02-03T12:41:19.320Z,100181.00
2023-02-03T12:43:50.918Z,100172.00
2023-02-03T12:46:31.675Z,100167.00
2023-02-03T12:49:40.571Z,100179.00
2023-02-03T12:52:23.728Z,100189.00
2023-02-03T12:55:22.764Z,100176.00
2023-02-03T12:58:07.672Z,100194.00
2023-02-03T13:00:59.035Z,100186.00
2023-02-03T13:03:52.201Z,100197.00
2023-02-03T13:06:31.197Z,100204.00
2023-02-03T13:09:38.266Z,100184.00
2023-02-03T13:12:50.607Z,100198.00
2023-02-03T13:15:33.224Z,100196.00
2023-02-03T13:18:29.822Z,100184.00
2023-02-03T13:20:57.728Z,100195.00
2023-02-03T13:23:28.861Z,100197.00
2023-02-03T13:26:20.460Z,100192.00
2023-02-03T13:29:19.484Z,100207.00
2023-02-03T13:32:07.566Z,100200.00
2023-02-03T13:35:24.786Z,100214.00
2023-02-03T13:38:40.035Z,100228.00
2023-02-03T13:41:52.636Z,100226.00
2023-02-03T13:44:28.671Z,100229.00
2023-02-03T13:46:59.517Z,100231.00
2023-02-03T13:49:34.511Z,100238.00
2023-02-03T13:52:02.648Z,100230.00
2023-02-03T13:54:43.936Z,100238.00
2023-02-03T13:57:28.796Z,100242.00
2023-02-03T13:59:56.379Z,100237.00
2023-02-03T14:02:42.532Z,100255.00
2023-02-03T14:05:44.793Z,100255.00
2023-02-03T14:08:26.858Z,100243.00
2023-02-03T14:11:34.682Z,100246.00
2023-02-03T14:14:08.015Z,100254.00
2023-02-03T14:16:50.013Z,100261.00
2023-02-03T14:19:33.575Z,100258.00
2023-02-03T14:22:10.180Z,100256.00
2023-02-03T14:24:44.583Z,100262.00
2023-02-03T14:27:28.199Z,100262.00
2023-02-03T14:30:15.561Z,100263.00
2023-02-03T14:33:00.150Z,100279.00
2023-02-03T14:35:37.361Z,100268.00
2023-02-03T14:38:14.334Z,100262.00
2023-02-03T14:41:05.172Z,100274.00
2023-02-03T14:44:01.799Z,100265.00
2023-02-03T14:47:09.713Z,100276.00
2023-02-03T14:49:43.450Z,100279.00
2023-02-03T14:52:46.286Z,100288.00
2023-02-03T14:55:52.193Z,100284.00
2023-02-03T14:58:36.079Z,100292.00
2023-02-03T15:01:08.534Z,100286.00
2023-02-03T15:03:38.050Z,100299.00
2023-02-03T15:06:06.480Z,100298.00
2023-02-03T15:08:47.697Z,100298.00
2023-02-03T15:11:45.070Z,100304.00
2023-02-03T15:14:27.994Z,100317.00
2023-02-03T15:17:01.595Z,100326.00
2023-02-03T15:19:39.712Z,100323.00
2023-02-03T15:22:20.805Z,100322.00
2023-02-03T15:24:51.173Z,100333.00
2023-02-03T15:27:25.743Z,100340.00
2023-02-03T15:29:54.501Z,100337.00
2023-02-03T15:32:37.036Z,100343.00
2023-02-03T15:35:11.590Z,100330.00
2023-02-03T15:38:18.593Z,100334.00
2023-02-03T15:40:53.517Z,100333.00
2023-02-03T15:43:42.751Z,100318.00
2023-02-03T15:46:29.710Z,100340.00
2023-02-03T15:49:01.165Z,100361.00
2023-02-03T15:51:37.351Z,100373.00
2023-02-03T15:54:14.970Z,100376.00
2023-02-03T15:57:01.221Z,100377.00
2023-02-03T15:59:38.719Z,100381.00
2023-02-03T16:02:18.178Z,100395.00
2023-02-03T16:04:46.796Z,100400.00
2023-02-03T16:07:29.903Z,100414.00
2023-02-03T16:10:00.080Z,100412.00
2023-02-03T16:12:29.697Z,100420.00
2023-02-03T16:14:59.865Z,100421.00
2023-02-03T16:17:41.704Z,100418.00
2023-02-03T16:20:12.349Z,100427.00
2023-02-03T16:23:00.702Z,100441.00
2023-02-03T16:25:32.112Z,100443.00
2023-02-03T16:28:35.692Z,100445.00
2023-02-03T16:31:37.753Z,100454.00
2023-02-03T16:34:36.950Z,100464.00
2023-02-03T16:37:42.802Z,100454.00
2023-02-03T16:40:37.691Z,100454.00
2023-02-03T16:43:24.462Z,100442.00
2023-02-03T16:46:15.614Z,100439.00
2023-02-03T16:49:01.635Z,100450.00
2023-02-03T16:51:39.749Z,100441.00
2023-02-03T16:54:10.837Z,100437.00
2023-02-03T16:56:38.718Z,100430.00
2023-02-03T16:59:06.623Z,100442.00
2023-02-03T17:01:34.284Z,100450.00
2023-02-03T17:04:02.751Z,100448.00
2023-02-03T17:06:30.982Z,100453.00
2023-02-03T17:08:59.219Z,100462.00
2023-02-03T17:11:27.410Z,100463.00
2023-02-03T17:13:54.993Z,100462.00
2023-02-03T17:16:25.518Z,100456.00
2023-02-03T17:18:53.922Z,100464.00
2023-02-03T17:21:26.191Z,100450.00
2023-02-03T17:23:53.874Z,100455.00
2023-02-03T17:26:21.802Z,100468.00
2023-02-03T17:28:49.419Z,100461.00
2023-02-03T17:31:20.078Z,100467.00
2023-02-03T17:33:53.698Z,100463.00
2023-02-03T17:36:22.122Z,100480.00
2023-02-03T17:55:33.262Z,100491.00
2023-02-03T17:58:01.292Z,100509.00
2023-02-03T18:00:29.115Z,100507.00
2023-02-03T18:02:57.752Z,100516.00
2023-02-03T18:05:25.543Z,100518.00
2023-02-03T18:07:53.089Z,100513.00
2023-02-03T18:10:21.806Z,100522.00
2023-02-03T18:12:49.584Z,100520.00
2023-02-03T18:15:17.215Z,100520.00
2023-02-03T18:17:44.824Z,100527.00
2023-02-03T18:20:13.766Z,100541.00
2023-02-03T18:22:41.301Z,100550.00
2023-02-03T18:25:09.828Z,100531.00
2023-02-03T18:27:37.413Z,100532.00
2023-02-03T18:30:05.567Z,100541.00
2023-02-03T18:32:32.980Z,100553.00
2023-02-03T18:35:01.071Z,100553.00
2023-02-03T18:37:28.862Z,100564.00
2023-02-03T18:39:56.273Z,100560.00
2023-02-03T18:42:23.789Z,100554.00
2023-02-03T18:44:51.466Z,100567.00
2023-02-03T18:47:18.952Z,100576.00
2023-02-03T18:49:48.182Z,100566.00
2023-02-03T18:52:16.003Z,100564.00
2023-02-03T18:54:43.580Z,100582.00
2023-02-03T18:57:14.222Z,100572.00
2023-02-03T18:59:42.200Z,100574.00
2023-02-03T19:02:11.493Z,100592.00
2023-02-03T19:04:38.994Z,100601.00
2023-02-03T19:07:06.856Z,100596.00
2023-02-03T19:09:34.928Z,100619.00
2023-02-03T19:12:03.279Z,100622.00
2023-02-03T19:14:30.908Z,100613.00
2023-02-03T19:16:58.572Z,100627.00
2023-02-03T19:19:29.283Z,100628.00
2023-02-03T19:21:58.680Z,100623.00
2023-02-03T19:24:27.440Z,100635.00
2023-02-03T19:26:55.287Z,100630.00
2023-02-03T19:29:23.091Z,100627.00
2023-02-03T19:31:51.888Z,100647.00
2023-02-03T19:34:19.471Z,100632.00
2023-02-03T19:36:50.035Z,100636.00
2023-02-03T19:39:18.865Z,100645.00
2023-02-03T19:41:49.573Z,100639.00
2023-02-03T19:44:17.035Z,100651.00
2023-02-03T19:46:44.650Z,100652.00
2023-02-03T19:49:13.609Z,100647.00
2023-02-03T19:51:45.182Z,100641.00
2023-02-03T19:54:15.687Z,100623.00
2023-02-03T19:56:44.453Z,100635.00
2023-02-03T19:59:12.078Z,100647.00
2023-02-03T20:01:39.735Z,100658.00
2023-02-03T20:04:07.785Z,100647.00
2023-02-03T20:06:35.714Z,100652.00
2023-02-03T20:09:04.445Z,100656.00
2023-02-03T20:11:32.122Z,100646.00
2023-02-03T20:13:59.901Z,100650.00
2023-02-03T20:16:30.706Z,100655.00
2023-02-03T20:19:01.339Z,100649.00
2023-02-03T20:21:28.862Z,100666.00
2023-02-03T20:23:56.297Z,100659.00
2023-02-03T20:26:24.542Z,100676.00
2023-02-03T20:28:52.275Z,100667.00
2023-02-03T20:31:20.151Z,100676.00
2023-02-03T20:33:47.999Z,100675.00
2023-02-03T20:36:15.584Z,100680.00
2023-02-03T20:38:43.363Z,100679.00
2023-02-03T20:41:12.938Z,100682.00
2023-02-03T20:43:40.972Z,100681.00
2023-02-03T20:46:16.458Z,100684.00
2023-02-03T20:48:44.755Z,100699.00
2023-02-03T20:51:14.786Z,100698.00
2023-02-03T20:53:52.787Z,100692.00
2023-02-03T20:56:22.077Z,100700.00
2023-02-03T20:58:49.724Z,100701.00
2023-02-03T21:01:22.759Z,100706.00
2023-02-03T21:04:09.093Z,100711.00
2023-02-03T21:06:37.069Z,100711.00
2023-02-03T21:09:20.227Z,100728.00
2023-02-03T21:11:47.696Z,100720.00
2023-02-03T21:14:22.668Z,100725.00
2023-02-03T21:16:51.451Z,100726.00
2023-02-03T21:19:29.722Z,100739.00
2023-02-03T21:21:57.942Z,100732.00
2023-02-03T21:24:36.889Z,100745.00
2023-02-03T21:27:23.211Z,100758.00
2023-02-03T21:29:55.847Z,100763.00
2023-02-03T21:32:31.530Z,100756.00
2023-02-03T21:35:03.353Z,100778.00
2023-02-03T21:37:40.117Z,100769.00
2023-02-03T21:40:34.942Z,100774.00
2023-02-03T21:43:03.539Z,100779.00
2023-02-03T21:45:38.676Z,100783.00
2023-02-03T21:48:40.638Z,100781.00
2023-02-03T21:51:26.737Z,100791.00
2023-02-03T21:54:24.194Z,100790.00
2023-02-03T21:56:52.022Z,100801.00
2023-02-03T21:59:33.663Z,100811.00
2023-02-03T22:02:06.693Z,100819.00
2023-02-03T22:04:34.427Z,100817.00
2023-02-03T22:07:02.017Z,100831.00
2023-02-03T22:09:29.722Z,100823.00
2023-02-03T22:11:57.396Z,100835.00
2023-02-03T22:14:25.080Z,100850.00
2023-02-03T22:16:52.842Z,100858.00
2023-02-03T22:19:22.796Z,100867.00
2023-02-03T22:21:51.593Z,100876.00
2023-02-03T22:24:19.037Z,100895.00
2023-02-03T22:26:46.402Z,100904.00
2023-02-03T22:29:13.843Z,100903.00
2023-02-03T22:31:42.955Z,100909.00
2023-02-03T22:34:10.535Z,100917.00
2023-02-03T22:36:38.339Z,100928.00
2023-02-03T22:39:06.027Z,100928.00
2023-02-03T22:41:33.371Z,100929.00
2023-02-03T22:44:00.890Z,100928.00
2023-02-03T22:46:28.580Z,100932.00
2023-02-03T22:48:56.240Z,100942.00
2023-02-03T22:51:23.816Z,100940.00
2023-02-03T22:53:51.339Z,100947.00
2023-02-03T22:56:18.801Z,100943.00
2023-02-03T22:58:46.172Z,100955.00
2023-02-03T23:01:14.053Z,100964.00
2023-02-03T23:03:41.536Z,100972.00
2023-02-03T23:06:08.775Z,100967.00
2023-02-03T23:08:36.165Z,100974.00
2023-02-03T23:11:03.800Z,100977.00
2023-02-03T23:13:31.473Z,100988.00
2023-02-03T23:15:59.119Z,100990.00
2023-02-03T23:18:26.644Z,100999.00
2023-02-03T23:20:54.359Z,101005.00
2023-02-03T23:23:22.111Z,101009.00
2023-02-03T23:25:49.708Z,101018.00
2023-02-03T23:28:17.354Z,101028.00
2023-02-03T23:30:45.064Z,101030.00
2023-02-03T23:33:12.758Z,101052.00
2023-02-03T23:35:46.655Z,101056.00
2023-02-03T23:38:18.350Z,101066.00
2023-02-03T23:40:45.972Z,101077.00
2023-02-03T23:43:13.925Z,101082.00
2023-02-03T23:45:41.593Z,101079.00
2023-02-03T23:48:09.525Z,101083.00
2023-02-03T23:50:37.183Z,101081.00
2023-02-03T23:53:05.055Z,101095.00
2023-02-03T23:55:32.522Z,101101.00
2023-02-03T23:58:00.036Z,101116.00
